Terminal Aerodrome Forecast
Issued by NWS Cleveland, OH

Home | Current Version | Previous Version | Text Only | Print | Product List | Glossary On
Versions: 1 2 3 4 5 6 7 8 9 10 11 12 13 14
000
FTUS41 KCLE 050539
TAFYNG
TAF
KYNG 050539Z 0506/0606 VRB03KT P6SM FEW070 SCT250
     FM051100 31005KT P6SM SCT025
     FM051600 33010KT P6SM SCT040
     FM060200 VRB03KT P6SM SCT100 BKN250=

USA.gov is the U.S. government's official web portal to all federal, state and local government web resources and services.